Time;durP1;ratioP1;P1;durP2;ratioP2;P2;SDS_P1;SDS_P2;PMS_P1;PMS_P2;Temp;Humidity;BMP_temperature;BMP_pressure;BME280_temperature;BME280_humidity;BME280_pressure;Samples;Min_cycle;Max_cycle;Signal;HPM_P1;HPM_P2
2023/04/29 00:01:38;;;;;;;24.38;15.20;;;11.20;99.90;;;;;;4893204;29;20029;-85
2023/04/29 00:04:04;;;;;;;41.50;17.00;;;11.20;99.90;;;;;;4894279;29;20036;-81
2023/04/29 00:06:30;;;;;;;18.85;14.40;;;11.20;99.90;;;;;;4874608;29;20051;-82
2023/04/29 00:08:57;;;;;;;22.02;15.13;;;11.20;99.90;;;;;;4880481;29;20045;-81
2023/04/29 00:11:23;;;;;;;17.77;12.63;;;11.20;99.90;;;;;;4896788;29;20053;-88
2023/04/29 00:13:49;;;;;;;17.73;11.60;;;11.20;99.90;;;;;;4888534;29;20505;-81
2023/04/29 00:16:15;;;;;;;18.40;11.15;;;11.20;99.90;;;;;;4876776;29;20037;-80
2023/04/29 00:18:42;;;;;;;18.00;11.85;;;11.20;99.90;;;;;;4896959;29;20036;-82
2023/04/29 00:21:08;;;;;;;24.15;11.93;;;11.20;99.90;;;;;;4897450;29;20466;-81
2023/04/29 00:23:34;;;;;;;20.27;11.95;;;11.20;99.90;;;;;;4897032;29;20414;-82
2023/04/29 00:26:01;;;;;;;16.35;11.10;;;11.20;99.90;;;;;;4897144;29;20060;-82
2023/04/29 00:28:27;;;;;;;16.45;10.90;;;11.10;99.90;;;;;;4896794;29;20040;-83
2023/04/29 00:30:53;;;;;;;17.85;10.55;;;11.10;99.90;;;;;;4891547;29;20397;-82
2023/04/29 00:33:19;;;;;;;16.98;10.48;;;11.10;99.90;;;;;;4893124;29;20039;-83
2023/04/29 00:35:45;;;;;;;15.65;10.52;;;11.00;99.90;;;;;;4896920;29;20043;-82
2023/04/29 00:38:12;;;;;;;15.52;9.02;;;10.90;99.90;;;;;;4897456;29;20032;-82
2023/04/29 00:40:38;;;;;;;12.70;9.45;;;10.90;99.90;;;;;;4877851;29;20041;-83
2023/04/29 00:43:04;;;;;;;14.60;10.18;;;10.90;99.90;;;;;;4897568;29;20032;-83
2023/04/29 00:45:30;;;;;;;17.40;10.52;;;10.90;99.90;;;;;;4897205;29;20481;-81
2023/04/29 00:47:57;;;;;;;15.95;10.02;;;11.00;99.90;;;;;;4897500;29;20044;-80
2023/04/29 00:50:23;;;;;;;14.55;9.85;;;11.00;99.90;;;;;;4897482;29;20051;-86
2023/04/29 00:52:51;;;;;;;17.35;10.48;;;11.00;99.90;;;;;;4897188;29;20466;-80
2023/04/29 00:55:18;;;;;;;18.15;10.13;;;10.90;99.90;;;;;;4880564;29;20052;-80
2023/04/29 00:57:47;;;;;;;19.70;10.70;;;10.90;99.90;;;;;;4897442;29;20131;-80
2023/04/29 01:00:15;;;;;;;14.95;9.25;;;10.90;99.90;;;;;;4880653;29;20060;-80
2023/04/29 01:02:41;;;;;;;16.55;10.73;;;10.80;99.90;;;;;;4897320;29;20052;-80
2023/04/29 01:05:07;;;;;;;12.52;8.40;;;10.70;99.90;;;;;;4877193;29;20045;-80
2023/04/29 01:07:41;;;;;;;16.52;8.77;;;10.50;99.90;;;;;;4861555;29;20045;-80
2023/04/29 01:10:21;;;;;;;15.50;8.85;;;10.60;99.90;;;;;;4883763;29;20372;-80
2023/04/29 01:13:10;;;;;;;15.05;8.20;;;10.50;99.90;;;;;;4880062;29;20060;-81
2023/04/29 01:16:04;;;;;;;18.58;8.98;;;10.40;99.90;;;;;;4879772;29;20037;-81
2023/04/29 01:18:42;;;;;;;14.82;9.00;;;10.40;99.90;;;;;;4864654;29;20490;-82
2023/04/29 01:21:09;;;;;;;13.20;9.50;;;10.40;99.90;;;;;;4883812;29;20048;-81
2023/04/29 01:23:35;;;;;;;16.73;10.57;;;10.40;99.90;;;;;;4900408;29;20033;-81
2023/04/29 01:26:02;;;;;;;21.27;11.80;;;10.40;99.90;;;;;;4900907;29;20048;-81
2023/04/29 01:29:43;;;;;;;17.52;10.55;;;10.30;99.90;;;;;;4894283;29;20044;-81
2023/04/29 01:32:36;;;;;;;14.63;9.32;;;10.20;99.90;;;;;;4875665;29;20063;-80
2023/04/29 01:35:15;;;;;;;15.00;10.55;;;10.20;99.90;;;;;;4873231;29;20052;-81
2023/04/29 01:38:06;;;;;;;16.98;10.60;;;10.20;99.90;;;;;;4879727;29;20037;-81
2023/04/29 01:40:58;;;;;;;18.83;10.98;;;10.30;99.90;;;;;;4879777;29;20212;-82
2023/04/29 01:43:29;;;;;;;18.40;11.88;;;10.30;99.90;;;;;;4877813;29;20047;-81
2023/04/29 01:45:59;;;;;;;17.77;10.57;;;10.30;99.90;;;;;;4864433;29;20045;-81
2023/04/29 01:48:26;;;;;;;17.85;10.05;;;10.30;99.90;;;;;;4864711;29;20052;-82
2023/04/29 01:50:53;;;;;;;23.25;11.50;;;10.30;99.90;;;;;;4881318;29;20395;-81
2023/04/29 01:53:22;;;;;;;18.65;10.50;;;10.40;99.90;;;;;;4864700;29;20045;-80
2023/04/29 01:55:49;;;;;;;16.88;10.25;;;10.50;99.90;;;;;;4879292;29;20048;-83
2023/04/29 01:58:19;;;;;;;18.50;10.68;;;10.50;99.90;;;;;;4870903;29;20056;-82
2023/04/29 02:00:59;;;;;;;18.30;10.30;;;10.50;99.90;;;;;;4884109;29;20044;-82
2023/04/29 02:03:26;;;;;;;20.23;10.60;;;10.50;99.90;;;;;;4882703;29;20045;-87
2023/04/29 02:05:56;;;;;;;18.80;10.40;;;10.50;99.90;;;;;;4868185;29;20051;-82
2023/04/29 02:08:22;;;;;;;17.02;11.40;;;10.50;99.90;;;;;;4867894;29;20402;-81
2023/04/29 02:10:56;;;;;;;15.35;9.45;;;10.40;99.90;;;;;;4868296;29;20079;-82
2023/04/29 02:13:37;;;;;;;17.67;10.93;;;10.40;99.90;;;;;;4881855;29;20047;-82
2023/04/29 02:16:11;;;;;;;17.23;10.68;;;10.50;99.90;;;;;;4867210;29;20052;-80
2023/04/29 02:18:42;;;;;;;19.25;9.93;;;10.50;99.90;;;;;;4882264;29;20048;-80
2023/04/29 02:21:08;;;;;;;19.05;10.07;;;10.50;99.90;;;;;;4882646;29;20049;-82
2023/04/29 02:23:35;;;;;;;13.82;8.23;;;10.50;99.90;;;;;;4866489;29;20040;-82
2023/04/29 02:26:04;;;;;;;13.65;9.38;;;10.50;99.90;;;;;;4897744;29;20386;-87
2023/04/29 02:28:31;;;;;;;16.67;10.05;;;10.60;99.90;;;;;;4880793;29;20041;-82
2023/04/29 02:30:57;;;;;;;11.63;9.02;;;10.60;99.90;;;;;;4895191;29;20493;-82
2023/04/29 02:33:23;;;;;;;15.23;9.65;;;10.70;99.90;;;;;;4883032;29;20045;-82
2023/04/29 02:35:49;;;;;;;10.57;8.25;;;10.70;99.90;;;;;;4882174;29;20490;-82
2023/04/29 02:38:16;;;;;;;11.38;7.45;;;10.80;99.90;;;;;;4882107;29;20044;-82
2023/04/29 02:40:43;;;;;;;10.98;7.50;;;10.80;99.90;;;;;;4881877;29;20044;-83
2023/04/29 02:43:10;;;;;;;11.45;7.10;;;10.70;99.90;;;;;;4864077;29;20067;-86
2023/04/29 02:45:37;;;;;;;10.55;6.47;;;10.70;99.90;;;;;;4881766;29;20048;-82
2023/04/29 02:48:05;;;;;;;10.60;6.43;;;10.70;99.90;;;;;;4882348;29;20042;-82
2023/04/29 02:50:31;;;;;;;11.50;7.22;;;10.70;99.90;;;;;;4899444;29;20041;-81
2023/04/29 02:52:58;;;;;;;13.27;7.18;;;10.70;99.90;;;;;;4881977;29;20482;-81
2023/04/29 02:55:25;;;;;;;9.63;6.60;;;10.50;99.90;;;;;;4899712;29;20059;-80
2023/04/29 02:57:53;;;;;;;11.73;7.30;;;10.50;99.90;;;;;;4866209;29;20075;-80
2023/04/29 03:00:20;;;;;;;13.43;7.65;;;10.30;99.90;;;;;;4898881;29;20036;-80
2023/04/29 03:02:46;;;;;;;10.90;6.93;;;10.30;99.90;;;;;;4898046;29;20044;-80
2023/04/29 03:05:12;;;;;;;10.20;7.03;;;10.30;99.90;;;;;;4881579;29;20047;-80
2023/04/29 03:07:38;;;;;;;13.23;7.20;;;10.20;99.90;;;;;;4881713;29;20066;-80
2023/04/29 03:10:05;;;;;;;14.70;9.07;;;10.10;99.90;;;;;;4881306;29;20055;-80
2023/04/29 03:12:33;;;;;;;13.60;7.53;;;10.10;99.90;;;;;;4881320;29;20071;-81
2023/04/29 03:15:01;;;;;;;11.77;6.95;;;10.00;99.90;;;;;;4881626;29;20044;-80
2023/04/29 03:17:27;;;;;;;11.73;6.28;;;10.00;99.90;;;;;;4878871;29;20037;-79
2023/04/29 03:19:53;;;;;;;9.50;6.80;;;9.90;99.90;;;;;;4879840;29;20387;-80
2023/04/29 03:22:20;;;;;;;11.20;5.40;;;9.90;99.90;;;;;;4878425;29;20052;-80
2023/04/29 03:24:47;;;;;;;9.00;5.70;;;9.80;99.90;;;;;;4879621;29;20049;-80
2023/04/29 03:27:13;;;;;;;10.38;6.65;;;9.80;99.90;;;;;;4895731;29;20048;-81
2023/04/29 03:29:39;;;;;;;17.77;11.18;;;9.80;99.90;;;;;;4880598;29;20032;-81
2023/04/29 03:32:06;;;;;;;12.40;9.00;;;9.90;99.90;;;;;;4896445;29;20051;-81
2023/04/29 03:34:33;;;;;;;11.88;7.68;;;9.90;99.90;;;;;;4877017;29;20052;-81
2023/04/29 03:37:22;;;;;;;11.13;7.18;;;9.90;99.90;;;;;;4873765;29;20049;-80
2023/04/29 03:39:55;;;;;;;8.40;5.88;;;10.00;99.90;;;;;;4885548;29;20123;-80
2023/04/29 03:42:22;;;;;;;7.85;6.53;;;10.00;99.90;;;;;;4881148;29;20426;-80
2023/04/29 03:44:48;;;;;;;11.25;6.40;;;10.00;99.90;;;;;;4897492;29;20040;-80
2023/04/29 03:47:14;;;;;;;8.45;5.78;;;10.00;99.90;;;;;;4897315;29;20041;-80
2023/04/29 03:49:40;;;;;;;9.15;6.00;;;10.00;99.90;;;;;;4897366;29;20032;-80
2023/04/29 03:52:07;;;;;;;11.45;6.68;;;10.00;99.90;;;;;;4896098;29;20052;-80
2023/04/29 03:54:33;;;;;;;9.55;5.85;;;9.90;99.90;;;;;;4895918;29;20044;-86
2023/04/29 03:57:00;;;;;;;8.85;5.82;;;10.00;99.90;;;;;;4880312;29;20057;-80
2023/04/29 03:59:26;;;;;;;7.82;6.03;;;10.00;99.90;;;;;;4877398;29;20052;-81
2023/04/29 04:01:55;;;;;;;9.80;6.10;;;10.00;99.90;;;;;;4862091;29;20402;-81
2023/04/29 04:04:21;;;;;;;11.00;5.68;;;10.00;99.90;;;;;;4890574;29;20032;-81
2023/04/29 04:06:50;;;;;;;10.55;5.50;;;10.00;99.90;;;;;;4891900;29;20049;-81
2023/04/29 04:09:18;;;;;;;9.98;6.05;;;10.10;99.90;;;;;;4895241;29;20049;-81
2023/04/29 04:11:45;;;;;;;7.60;6.03;;;10.10;99.90;;;;;;4879586;29;20059;-81
2023/04/29 04:14:12;;;;;;;8.80;5.70;;;10.10;99.90;;;;;;4897483;29;20041;-82
2023/04/29 04:16:39;;;;;;;13.65;6.53;;;10.20;99.90;;;;;;4880402;29;20044;-82
2023/04/29 04:19:05;;;;;;;8.65;5.70;;;10.20;99.90;;;;;;4880284;29;20049;-81
2023/04/29 04:21:35;;;;;;;9.13;5.20;;;10.20;99.90;;;;;;4880903;29;20053;-81
2023/04/29 04:24:06;;;;;;;10.45;5.65;;;10.30;99.90;;;;;;4865720;29;20174;-81
2023/04/29 04:26:32;;;;;;;7.03;4.95;;;10.20;99.90;;;;;;4880434;29;20060;-85
2023/04/29 04:28:58;;;;;;;9.30;4.82;;;10.30;99.90;;;;;;4894585;29;20737;-81
2023/04/29 04:31:47;;;;;;;9.55;4.53;;;10.30;99.90;;;;;;4875255;29;20509;-81
2023/04/29 04:34:15;;;;;;;6.22;4.00;;;10.30;99.90;;;;;;4880555;29;20045;-81
2023/04/29 04:36:44;;;;;;;9.15;3.95;;;10.30;99.90;;;;;;4877535;29;20045;-81
2023/04/29 04:39:10;;;;;;;11.20;5.10;;;10.30;99.90;;;;;;4876930;29;20506;-81
2023/04/29 04:41:37;;;;;;;9.27;3.90;;;10.40;99.90;;;;;;4891697;29;20486;-82
2023/04/29 04:44:04;;;;;;;8.15;5.03;;;10.40;99.90;;;;;;4877488;29;20045;-82
2023/04/29 04:46:54;;;;;;;8.40;6.20;;;10.50;99.90;;;;;;4896714;29;20036;-82
2023/04/29 04:49:52;;;;;;;8.45;6.45;;;10.50;99.90;;;;;;4868038;29;20455;-82
2023/04/29 04:52:20;;;;;;;9.18;4.68;;;10.50;99.90;;;;;;4879990;29;20048;-82
2023/04/29 04:54:50;;;;;;;5.83;4.43;;;10.60;99.90;;;;;;4853905;29;20483;-81
2023/04/29 04:57:21;;;;;;;10.63;4.60;;;10.60;99.90;;;;;;4865059;29;20297;-81
2023/04/29 04:59:48;;;;;;;5.90;4.05;;;10.60;99.90;;;;;;4864447;29;20482;-82
2023/04/29 05:02:15;;;;;;;8.95;4.50;;;10.70;99.90;;;;;;4882130;29;20049;-80
2023/04/29 05:04:41;;;;;;;7.95;4.10;;;10.70;99.90;;;;;;4883062;29;20501;-80
2023/04/29 05:07:07;;;;;;;6.20;4.65;;;10.70;99.90;;;;;;4880598;29;20045;-80
2023/04/29 05:09:51;;;;;;;7.75;4.68;;;10.80;99.90;;;;;;4879991;29;20048;-83
2023/04/29 05:12:17;;;;;;;7.07;4.53;;;10.80;99.90;;;;;;4893704;29;20402;-82
2023/04/29 05:14:46;;;;;;;6.03;3.83;;;10.80;99.90;;;;;;4898870;29;20059;-83
2023/04/29 05:17:13;;;;;;;6.57;4.13;;;10.90;99.90;;;;;;4883904;29;20040;-82
2023/04/29 05:19:39;;;;;;;4.95;3.67;;;11.00;99.90;;;;;;4880378;29;20052;-83
2023/04/29 05:22:06;;;;;;;5.10;3.78;;;11.00;99.90;;;;;;4883286;29;20048;-82
2023/04/29 05:24:32;;;;;;;7.90;3.30;;;11.00;99.90;;;;;;4883002;29;20402;-82
2023/04/29 05:26:58;;;;;;;6.00;3.08;;;11.10;99.90;;;;;;4882276;29;20048;-81
2023/04/29 05:29:26;;;;;;;5.35;2.88;;;11.10;99.90;;;;;;4882741;29;20059;-81
2023/04/29 05:31:57;;;;;;;3.92;2.30;;;11.10;99.90;;;;;;4864244;29;20057;-82
2023/04/29 05:34:23;;;;;;;4.22;2.50;;;11.20;99.90;;;;;;4891448;29;20056;-81
2023/04/29 05:36:51;;;;;;;3.55;2.65;;;11.20;99.90;;;;;;4882418;29;20410;-81
2023/04/29 05:39:18;;;;;;;3.35;2.40;;;11.30;99.90;;;;;;4882800;29;20048;-80
2023/04/29 05:41:47;;;;;;;7.93;3.55;;;11.30;99.90;;;;;;4878815;29;20053;-81
2023/04/29 05:44:21;;;;;;;3.95;2.63;;;11.40;99.90;;;;;;4883936;29;20052;-81
2023/04/29 05:46:47;;;;;;;5.93;2.72;;;11.40;99.90;;;;;;4899011;29;20040;-80
2023/04/29 05:49:14;;;;;;;5.95;3.20;;;11.40;99.90;;;;;;4867313;29;20044;-80
2023/04/29 05:51:41;;;;;;;3.63;2.40;;;11.50;99.90;;;;;;4880865;29;20402;-81
2023/04/29 05:54:07;;;;;;;3.88;2.83;;;11.50;99.90;;;;;;4892181;29;20052;-81
2023/04/29 05:56:33;;;;;;;3.83;2.25;;;11.50;99.90;;;;;;4891011;29;20048;-85
2023/04/29 05:59:00;;;;;;;4.90;2.25;;;11.50;99.90;;;;;;4899516;29;20035;-84
2023/04/29 06:01:26;;;;;;;2.92;2.08;;;11.50;99.90;;;;;;4895893;29;20033;-82
2023/04/29 06:03:52;;;;;;;2.42;1.80;;;11.50;99.90;;;;;;4865935;29;20045;-80
2023/04/29 06:06:31;;;;;;;3.85;2.33;;;11.60;99.90;;;;;;4872220;29;20479;-81
2023/04/29 06:09:18;;;;;;;3.40;1.92;;;11.60;99.90;;;;;;4882430;29;20481;-86
2023/04/29 06:11:46;;;;;;;3.13;2.10;;;11.60;99.90;;;;;;4855662;29;20060;-87
2023/04/29 06:14:13;;;;;;;3.42;2.03;;;11.60;99.90;;;;;;4875479;29;20462;-88
2023/04/29 06:16:39;;;;;;;2.50;1.75;;;11.70;99.90;;;;;;4880673;29;20803;-85
2023/04/29 06:19:05;;;;;;;4.30;2.33;;;11.70;99.90;;;;;;4875672;29;20048;-77
2023/04/29 06:21:31;;;;;;;3.65;2.40;;;11.80;99.90;;;;;;4889148;29;20040;-85
2023/04/29 06:23:59;;;;;;;3.17;2.67;;;11.90;99.90;;;;;;4887716;29;20032;-86
2023/04/29 06:26:26;;;;;;;6.32;3.60;;;12.00;99.90;;;;;;4883546;29;20067;-86
2023/04/29 06:28:53;;;;;;;4.35;2.97;;;12.10;99.90;;;;;;4881620;29;20075;-86
2023/04/29 06:31:19;;;;;;;2.85;2.30;;;12.10;93.50;;;;;;4881993;29;20048;-85
2023/04/29 06:33:46;;;;;;;3.80;2.08;;;12.10;85.80;;;;;;4861464;29;20398;-86
2023/04/29 06:36:13;;;;;;;5.57;2.97;;;12.10;57.20;;;;;;4873111;29;20044;-85
2023/04/29 06:38:58;;;;;;;7.20;3.28;;;12.20;59.70;;;;;;4880169;29;20032;-84
2023/04/29 06:41:42;;;;;;;4.05;2.88;;;12.20;50.10;;;;;;4889158;29;20071;-86
2023/04/29 06:44:34;;;;;;;5.22;3.05;;;12.20;45.80;;;;;;4867774;29;20459;-85
2023/04/29 06:47:18;;;;;;;6.32;4.28;;;12.30;47.10;;;;;;4870199;29;20100;-85
2023/04/29 06:49:48;;;;;;;8.35;5.07;;;12.30;13.10;;;;;;4881976;29;20040;-94
2023/04/29 06:52:14;;;;;;;10.35;5.50;;;12.30;9.00;;;;;;4896594;29;20041;-85
2023/04/29 06:54:42;;;;;;;8.27;5.10;;;12.30;13.00;;;;;;4864557;29;20037;-84
2023/04/29 06:57:08;;;;;;;9.57;6.20;;;12.20;10.20;;;;;;4898836;29;20061;-82
2023/04/29 06:59:35;;;;;;;19.10;8.43;;;12.20;20.20;;;;;;4894204;29;20037;-82
2023/04/29 07:02:03;;;;;;;14.45;9.95;;;12.30;4.50;;;;;;4881199;29;20064;-82
2023/04/29 07:04:29;;;;;;;15.82;9.57;;;12.30;1.00;;;;;;4898595;29;20037;-84
2023/04/29 07:06:55;;;;;;;14.00;9.90;;;12.20;1.00;;;;;;4885690;29;20045;-85
2023/04/29 07:09:22;;;;;;;13.57;10.07;;;12.20;1.00;;;;;;4895110;29;20035;-83
2023/04/29 07:11:48;;;;;;;14.88;10.63;;;12.20;1.00;;;;;;4877447;29;20053;-86
2023/04/29 07:14:15;;;;;;;16.50;9.30;;;12.10;1.00;;;;;;4877455;29;20045;-84
2023/04/29 07:16:41;;;;;;;14.05;9.52;;;12.10;1.00;;;;;;4870599;29;20128;-85
2023/04/29 07:19:09;;;;;;;12.80;8.43;;;12.10;1.00;;;;;;4877398;29;20044;-86
2023/04/29 07:21:36;;;;;;;14.68;9.57;;;12.00;1.00;;;;;;4862641;29;20052;-92
2023/04/29 07:24:03;;;;;;;14.80;9.23;;;12.00;1.00;;;;;;4879605;29;20045;-89
2023/04/29 07:26:30;;;;;;;13.45;9.65;;;12.00;1.00;;;;;;4878837;29;20415;-90
2023/04/29 07:28:56;;;;;;;12.77;8.20;;;12.00;1.00;;;;;;4880258;29;20040;-92
2023/04/29 07:31:23;;;;;;;15.88;8.80;;;11.90;1.00;;;;;;4864143;29;20072;-89
2023/04/29 07:33:49;;;;;;;14.38;8.65;;;12.00;1.00;;;;;;4857349;29;20044;-89
2023/04/29 07:36:16;;;;;;;10.23;7.75;;;12.00;1.00;;;;;;4878424;29;20059;-85
2023/04/29 07:38:42;;;;;;;10.68;7.82;;;12.10;1.00;;;;;;4884249;29;20044;-93
2023/04/29 07:41:08;;;;;;;12.93;7.88;;;12.20;1.00;;;;;;4893330;29;20032;-81
2023/04/29 07:43:35;;;;;;;10.10;7.50;;;12.30;1.00;;;;;;4865031;29;20052;-89
2023/04/29 07:46:02;;;;;;;11.35;7.60;;;12.30;1.00;;;;;;4872384;29;20045;-82
2023/04/29 07:48:28;;;;;;;10.10;7.22;;;12.40;1.00;;;;;;4878257;29;20052;-86
2023/04/29 07:50:54;;;;;;;10.80;7.07;;;12.60;1.00;;;;;;4901261;29;20047;-89
2023/04/29 07:53:20;;;;;;;7.93;6.32;;;12.60;1.00;;;;;;4894943;29;20044;-88
2023/04/29 07:55:46;;;;;;;11.52;7.85;;;12.70;1.00;;;;;;4890857;29;20040;-93
2023/04/29 07:58:13;;;;;;;11.18;6.88;;;12.80;1.00;;;;;;4877674;29;20072;-90
2023/04/29 08:00:39;;;;;;;14.77;7.78;;;12.60;1.00;;;;;;4895721;29;20040;-85
2023/04/29 08:03:05;;;;;;;13.48;8.90;;;12.60;1.00;;;;;;4878875;29;20442;-91
2023/04/29 08:05:32;;;;;;;10.05;7.40;;;12.60;1.00;;;;;;4886847;29;20048;-85
2023/04/29 08:07:58;;;;;;;10.48;7.13;;;12.50;1.00;;;;;;4859067;29;20052;-86
2023/04/29 08:10:26;;;;;;;13.23;7.88;;;12.60;1.00;;;;;;4876775;29;20052;-87
2023/04/29 08:12:52;;;;;;;10.63;7.88;;;12.60;1.00;;;;;;4889632;29;20048;-87
2023/04/29 08:15:19;;;;;;;10.07;7.80;;;12.60;1.00;;;;;;4862123;29;20064;-86
2023/04/29 08:17:45;;;;;;;10.60;7.25;;;12.70;1.00;;;;;;4874783;29;20063;-84
2023/04/29 08:20:11;;;;;;;12.85;8.20;;;12.70;1.00;;;;;;4893983;29;20032;-82
2023/04/29 08:22:37;;;;;;;12.18;7.57;;;12.70;1.00;;;;;;4876235;29;20466;-84
2023/04/29 08:25:04;;;;;;;10.10;7.13;;;12.80;1.00;;;;;;4892269;29;20056;-84
2023/04/29 08:27:30;;;;;;;12.07;8.52;;;12.90;1.00;;;;;;4891007;29;20049;-80
2023/04/29 08:29:56;;;;;;;9.88;6.50;;;13.00;1.00;;;;;;4897401;29;20495;-81
2023/04/29 08:32:23;;;;;;;10.40;6.93;;;13.10;1.00;;;;;;4895516;29;20051;-82
2023/04/29 08:34:49;;;;;;;13.75;7.75;;;13.20;1.00;;;;;;4897884;29;20100;-81
2023/04/29 08:37:15;;;;;;;10.55;6.80;;;13.10;1.00;;;;;;4882115;29;20486;-79
2023/04/29 08:39:46;;;;;;;14.18;8.85;;;13.10;1.00;;;;;;4898577;29;20051;-86
2023/04/29 08:42:12;;;;;;;9.68;6.75;;;13.10;99.90;;;;;;4896417;29;20040;-82
2023/04/29 08:44:42;;;;;;;10.38;7.32;;;13.10;1.00;;;;;;4882596;29;20044;-80
2023/04/29 08:47:09;;;;;;;11.27;6.80;;;13.10;99.90;;;;;;4897699;29;20044;-80
2023/04/29 08:49:36;;;;;;;8.45;6.15;;;13.10;99.90;;;;;;4898580;29;20047;-81
2023/04/29 08:52:03;;;;;;;9.52;6.25;;;13.30;99.90;;;;;;4899821;29;20041;-82
2023/04/29 08:54:30;;;;;;;8.38;5.15;;;13.40;99.90;;;;;;4883269;29;20041;-82
2023/04/29 08:56:58;;;;;;;6.97;4.78;;;13.40;99.90;;;;;;4881713;29;20052;-81
2023/04/29 08:59:26;;;;;;;8.57;5.43;;;13.40;99.90;;;;;;4881641;29;20056;-81
2023/04/29 09:01:53;;;;;;;6.68;4.22;;;13.40;99.90;;;;;;4892749;29;20051;-85
2023/04/29 09:04:46;;;;;;;7.28;5.15;;;13.20;99.90;;;;;;4873039;29;20041;-82
2023/04/29 09:07:12;;;;;;;7.57;5.55;;;13.10;99.90;;;;;;4899416;29;20048;-82
2023/04/29 09:09:40;;;;;;;7.70;5.35;;;13.00;99.90;;;;;;4898194;29;20052;-83
2023/04/29 09:12:06;;;;;;;6.82;4.57;;;13.10;99.90;;;;;;4875118;29;20064;-82
2023/04/29 09:14:33;;;;;;;8.15;5.15;;;13.20;99.90;;;;;;4897283;29;20037;-84
2023/04/29 09:16:59;;;;;;;7.95;5.25;;;13.40;99.90;;;;;;4866682;29;20048;-83
2023/04/29 09:19:33;;;;;;;9.85;6.38;;;13.30;99.90;;;;;;4894370;29;20045;-81
2023/04/29 09:22:01;;;;;;;8.23;5.65;;;13.20;99.90;;;;;;4881824;29;20391;-82
2023/04/29 09:24:29;;;;;;;7.15;4.93;;;13.40;99.90;;;;;;4890583;29;20040;-83
2023/04/29 09:26:56;;;;;;;7.38;5.10;;;13.50;99.90;;;;;;4898311;29;20396;-81
2023/04/29 09:29:22;;;;;;;7.95;4.72;;;13.60;99.90;;;;;;4882163;29;20394;-80
2023/04/29 09:31:49;;;;;;;6.53;5.03;;;13.70;99.90;;;;;;4892778;29;20107;-80
2023/04/29 09:34:15;;;;;;;7.35;4.97;;;13.80;99.90;;;;;;4882219;29;20487;-83
2023/04/29 09:36:49;;;;;;;6.97;4.20;;;13.60;99.90;;;;;;4880966;29;20036;-83
2023/04/29 09:39:21;;;;;;;5.85;3.45;;;13.70;99.90;;;;;;4882393;29;20033;-82
2023/04/29 09:41:53;;;;;;;4.15;3.28;;;13.70;99.90;;;;;;4896464;29;20036;-82
2023/04/29 09:44:31;;;;;;;4.90;3.03;;;13.80;99.90;;;;;;4897561;29;20036;-87
2023/04/29 09:47:02;;;;;;;6.60;3.75;;;13.70;99.90;;;;;;4898037;29;20032;-80
2023/04/29 09:49:44;;;;;;;5.45;3.78;;;13.80;99.90;;;;;;4879099;29;20040;-81
2023/04/29 09:52:19;;;;;;;5.15;3.65;;;14.10;99.90;;;;;;4879556;29;20044;-85
2023/04/29 09:54:45;;;;;;;4.75;3.00;;;14.20;99.90;;;;;;4881182;29;20041;-86
2023/04/29 09:57:14;;;;;;;5.05;3.65;;;14.40;99.90;;;;;;4898478;29;20053;-88
2023/04/29 09:59:41;;;;;;;5.70;4.30;;;14.30;99.90;;;;;;4880867;29;20052;-81
2023/04/29 10:02:16;;;;;;;6.10;3.63;;;14.30;99.90;;;;;;4893794;29;20045;-83
2023/04/29 10:04:52;;;;;;;4.85;3.55;;;14.10;99.90;;;;;;4884957;29;20126;-79
2023/04/29 10:07:19;;;;;;;5.05;3.00;;;14.00;99.90;;;;;;4884660;29;20048;-82
2023/04/29 10:09:46;;;;;;;5.93;2.70;;;14.10;99.90;;;;;;4864376;29;20049;-84
2023/04/29 10:12:19;;;;;;;4.28;3.20;;;14.40;99.90;;;;;;4883111;29;20067;-85
2023/04/29 10:15:21;;;;;;;4.88;2.97;;;14.10;99.90;;;;;;4890088;29;20048;-84
2023/04/29 10:17:59;;;;;;;3.70;2.30;;;14.20;99.90;;;;;;4872999;29;20484;-87
2023/04/29 10:20:25;;;;;;;5.70;3.13;;;14.40;99.90;;;;;;4884845;29;20482;-90
2023/04/29 10:22:58;;;;;;;3.78;2.10;;;14.40;99.90;;;;;;4874068;29;20063;-88
2023/04/29 10:25:26;;;;;;;4.93;2.67;;;14.30;99.90;;;;;;4887255;29;20394;-86
2023/04/29 10:27:55;;;;;;;5.13;3.35;;;14.40;99.90;;;;;;4891861;29;20033;-86
2023/04/29 10:30:21;;;;;;;4.10;2.47;;;14.50;99.90;;;;;;4908607;29;20039;-90
2023/04/29 10:32:49;;;;;;;6.13;2.78;;;14.50;99.90;;;;;;4904195;29;20048;-87
2023/04/29 10:35:21;;;;;;;5.22;3.90;;;14.50;99.90;;;;;;4869164;29;20048;-90
2023/04/29 10:37:48;;;;;;;6.72;3.92;;;14.70;99.90;;;;;;4905420;29;20041;-89
2023/04/29 10:40:35;;;;;;;4.38;2.85;;;14.50;99.90;;;;;;4901631;29;20036;-90
2023/04/29 10:43:01;;;;;;;4.80;3.25;;;14.60;99.90;;;;;;4876126;29;20049;-89
2023/04/29 10:45:30;;;;;;;6.38;3.53;;;14.80;99.90;;;;;;4880424;29;20033;-91
2023/04/29 10:48:07;;;;;;;6.75;3.55;;;14.80;99.90;;;;;;4896848;29;20040;-91
2023/04/29 10:50:36;;;;;;;4.63;3.13;;;15.30;99.90;;;;;;4888534;29;20075;-93
2023/04/29 10:53:03;;;;;;;6.47;4.10;;;15.40;99.90;;;;;;4875665;29;20053;-92
2023/04/29 10:55:30;;;;;;;6.13;3.97;;;15.20;99.90;;;;;;4884892;29;20037;-89
2023/04/29 10:57:57;;;;;;;4.85;3.15;;;15.20;99.90;;;;;;4897301;29;20470;-93
2023/04/29 11:00:27;;;;;;;4.88;3.35;;;15.30;99.90;;;;;;4898755;29;20033;-83
2023/04/29 11:02:55;;;;;;;4.85;3.38;;;14.90;99.90;;;;;;4899268;29;20085;-88
2023/04/29 11:05:35;;;;;;;8.25;4.15;;;14.50;99.90;;;;;;4891273;29;20037;-90
2023/04/29 11:08:23;;;;;;;5.15;3.60;;;14.40;99.90;;;;;;4860331;29;20045;-90
2023/04/29 11:10:53;;;;;;;5.07;3.13;;;14.30;99.90;;;;;;4879413;29;20040;-89
2023/04/29 11:13:27;;;;;;;8.48;4.20;;;14.20;99.90;;;;;;4867287;29;20064;-88
2023/04/29 11:16:10;;;;;;;6.85;4.60;;;14.20;99.90;;;;;;4881306;29;20123;-90
2023/04/29 11:19:06;;;;;;;5.10;3.47;;;14.30;99.90;;;;;;4891603;29;20045;-89
2023/04/29 11:21:34;;;;;;;4.97;3.60;;;14.30;99.90;;;;;;4885224;29;20036;-88
2023/04/29 11:24:01;;;;;;;6.25;3.65;;;14.20;99.90;;;;;;4898405;29;20037;-90
2023/04/29 11:26:28;;;;;;;6.75;3.50;;;14.20;99.90;;;;;;4862658;29;20045;-89
2023/04/29 11:28:57;;;;;;;4.85;3.40;;;13.90;99.90;;;;;;4897099;29;20036;-84
2023/04/29 11:31:32;;;;;;;5.22;3.78;;;14.10;99.90;;;;;;4880783;29;20041;-84
2023/04/29 11:33:59;;;;;;;3.33;2.30;;;14.20;99.90;;;;;;4894237;29;20029;-85
2023/04/29 11:36:26;;;;;;;5.43;2.83;;;14.20;99.90;;;;;;4897868;29;20052;-88
2023/04/29 11:38:52;;;;;;;3.55;2.42;;;14.20;99.90;;;;;;4881825;29;20112;-91
2023/04/29 11:41:20;;;;;;;3.20;1.73;;;14.50;99.90;;;;;;4880794;29;20070;-89
2023/04/29 11:43:46;;;;;;;2.58;1.40;;;14.50;99.90;;;;;;4878236;29;20123;-88
2023/04/29 11:46:13;;;;;;;2.55;1.30;;;14.80;99.90;;;;;;4883578;29;20045;-90
2023/04/29 11:48:47;;;;;;;2.63;1.75;;;15.20;99.90;;;;;;4894484;29;20056;-89
2023/04/29 11:51:15;;;;;;;4.03;1.85;;;15.40;99.90;;;;;;4879772;29;20085;-89
2023/04/29 11:53:41;;;;;;;2.95;1.80;;;14.90;99.90;;;;;;4897329;29;20052;-88
2023/04/29 11:56:09;;;;;;;3.33;2.15;;;14.80;99.90;;;;;;4882578;29;20443;-88
2023/04/29 11:58:36;;;;;;;4.15;2.15;;;14.50;99.90;;;;;;4880015;29;20060;-89
2023/04/29 12:01:03;;;;;;;3.38;2.13;;;14.20;99.90;;;;;;4881188;29;20375;-88
2023/04/29 12:03:31;;;;;;;4.15;2.58;;;14.40;99.90;;;;;;4867006;29;20056;-89
2023/04/29 12:05:58;;;;;;;3.15;1.75;;;14.40;99.90;;;;;;4897648;29;20044;-89
2023/04/29 12:08:29;;;;;;;4.28;2.67;;;14.70;99.90;;;;;;4881449;29;20077;-83
2023/04/29 12:10:57;;;;;;;3.72;1.58;;;14.60;99.90;;;;;;4900756;29;20052;-84
2023/04/29 12:13:29;;;;;;;3.75;2.10;;;14.60;99.90;;;;;;4903609;29;20040;-87
2023/04/29 12:15:57;;;;;;;5.40;2.38;;;14.50;99.90;;;;;;4899538;29;20048;-87
2023/04/29 12:18:23;;;;;;;3.78;2.65;;;14.50;99.90;;;;;;4897105;29;20037;-89
2023/04/29 12:20:50;;;;;;;3.15;2.10;;;14.80;99.90;;;;;;4893584;29;20033;-87
2023/04/29 12:23:18;;;;;;;4.22;1.88;;;14.80;99.90;;;;;;4910748;29;20033;-87
2023/04/29 12:25:55;;;;;;;3.78;2.33;;;15.10;99.90;;;;;;4902180;29;20036;-90
2023/04/29 12:28:22;;;;;;;2.70;2.10;;;15.00;99.90;;;;;;4881496;29;20478;-91
2023/04/29 12:30:50;;;;;;;3.50;2.00;;;15.10;99.90;;;;;;4865257;29;20146;-90
2023/04/29 12:33:28;;;;;;;5.07;2.60;;;14.80;99.90;;;;;;4882718;29;20032;-90
2023/04/29 12:35:58;;;;;;;3.03;1.70;;;15.20;99.90;;;;;;4895720;29;20214;-91
2023/04/29 12:38:29;;;;;;;2.92;2.28;;;15.30;88.40;;;;;;4867941;29;20037;-86
2023/04/29 12:40:57;;;;;;;3.20;1.98;;;14.80;97.30;;;;;;4883020;29;20037;-90
2023/04/29 12:43:30;;;;;;;3.58;2.20;;;15.00;99.90;;;;;;4883863;29;20045;-92
2023/04/29 12:46:02;;;;;;;3.75;2.28;;;15.20;99.90;;;;;;4880417;29;20048;-91
2023/04/29 12:48:31;;;;;;;6.30;2.22;;;15.10;99.30;;;;;;4895132;29;20398;-89
2023/04/29 12:50:58;;;;;;;3.42;1.70;;;15.20;99.90;;;;;;4878345;29;20056;-93
2023/04/29 12:53:31;;;;;;;2.15;1.42;;;15.10;99.00;;;;;;4878855;29;20059;-93
2023/04/29 12:55:58;;;;;;;2.60;1.48;;;15.30;75.30;;;;;;4877831;29;20055;-92